Time;durP1;ratioP1;P1;durP2;ratioP2;P2;SDS_P1;SDS_P2;PMS_P1;PMS_P2;Temp;Humidity;BMP_temperature;BMP_pressure;BME280_temperature;BME280_humidity;BME280_pressure;Samples;Min_cycle;Max_cycle;Signal;HPM_P1;HPM_P2
2023/10/03 00:00:24;;;;;;;13.78;8.70;;;;;;;;;;1751088;81;27388;-59
2023/10/03 00:02:56;;;;;;;13.13;8.43;;;;;;;;;;1740946;81;25420;-57
2023/10/03 00:05:31;;;;;;;13.83;8.10;;;;;;;;;;1745856;81;25548;-58
2023/10/03 00:08:04;;;;;;;13.55;8.78;;;;;;;;;;1755412;81;25725;-59
2023/10/03 00:10:33;;;;;;;12.35;7.62;;;;;;;;;;1745732;80;25545;-60
2023/10/03 00:12:59;;;;;;;13.50;8.53;;;;;;;;;;1726511;81;28027;-58
2023/10/03 00:15:32;;;;;;;18.32;8.43;;;;;;;;;;1749713;81;25551;-58
2023/10/03 00:17:56;;;;;;;15.00;8.60;;;;;;;;;;1754445;81;25746;-58
2023/10/03 00:20:24;;;;;;;16.80;9.25;;;;;;;;;;1751157;80;26459;-56
2023/10/03 00:22:52;;;;;;;15.60;9.53;;;;;;;;;;1751645;81;25621;-59
2023/10/03 00:25:25;;;;;;;18.40;9.68;;;;;;;;;;1749614;80;27331;-58
2023/10/03 00:27:53;;;;;;;15.05;9.65;;;;;;;;;;1752756;80;25500;-58
2023/10/03 00:30:20;;;;;;;17.10;9.80;;;;;;;;;;1747720;81;25424;-59
2023/10/03 00:32:52;;;;;;;14.15;8.70;;;;;;;;;;1745621;80;25815;-59
2023/10/03 00:35:19;;;;;;;13.93;9.20;;;;;;;;;;1753274;80;25497;-58
2023/10/03 00:37:48;;;;;;;15.85;9.18;;;;;;;;;;1747950;81;27319;-57
2023/10/03 00:40:19;;;;;;;14.75;9.98;;;;;;;;;;1749914;81;25808;-58
2023/10/03 00:42:49;;;;;;;13.55;8.63;;;;;;;;;;1732040;81;25447;-59
2023/10/03 00:45:24;;;;;;;16.75;9.33;;;;;;;;;;1751450;81;26216;-59
2023/10/03 00:47:53;;;;;;;14.13;9.78;;;;;;;;;;1748014;81;25552;-57
2023/10/03 00:50:23;;;;;;;16.62;9.68;;;;;;;;;;1754899;81;27333;-59
2023/10/03 00:52:59;;;;;;;20.02;9.43;;;;;;;;;;1754773;80;25582;-59
2023/10/03 00:55:28;;;;;;;18.45;9.68;;;;;;;;;;1753580;81;25780;-59
2023/10/03 01:00:43;;;;;;;14.15;8.85;;;;;;;;;;1756121;80;25543;-57
2023/10/03 01:03:37;;;;;;;14.90;9.40;;;;;;;;;;1749453;81;28430;-58
2023/10/03 01:06:10;;;;;;;18.55;10.20;;;;;;;;;;1749953;81;25730;-57
2023/10/03 01:08:46;;;;;;;16.60;9.20;;;;;;;;;;1740282;81;25549;-58
2023/10/03 01:11:18;;;;;;;13.50;9.30;;;;;;;;;;1751524;81;25756;-58
2023/10/03 01:13:47;;;;;;;14.53;9.20;;;;;;;;;;1747763;81;25603;-59
2023/10/03 01:16:20;;;;;;;21.50;9.55;;;;;;;;;;1750078;81;27814;-57
2023/10/03 01:18:43;;;;;;;11.93;8.10;;;;;;;;;;1746664;81;25575;-57
2023/10/03 01:21:11;;;;;;;13.22;9.25;;;;;;;;;;1750760;81;25869;-56
2023/10/03 01:23:40;;;;;;;19.70;10.28;;;;;;;;;;1750594;81;25742;-56
2023/10/03 01:26:09;;;;;;;16.65;9.50;;;;;;;;;;1743905;81;25353;-57
2023/10/03 01:28:38;;;;;;;13.03;8.13;;;;;;;;;;1751314;81;27338;-57
2023/10/03 01:31:06;;;;;;;12.13;9.20;;;;;;;;;;1751199;80;25523;-59
2023/10/03 01:33:34;;;;;;;13.18;9.08;;;;;;;;;;1750206;81;25426;-58
2023/10/03 01:36:03;;;;;;;14.53;9.23;;;;;;;;;;1715539;81;25894;-56
2023/10/03 01:38:29;;;;;;;15.15;9.30;;;;;;;;;;1735987;81;25493;-55
2023/10/03 01:41:00;;;;;;;15.13;9.00;;;;;;;;;;1750855;78;27312;-57
2023/10/03 01:43:28;;;;;;;16.70;10.30;;;;;;;;;;1744451;79;25780;-57
2023/10/03 01:45:55;;;;;;;18.23;9.20;;;;;;;;;;1710969;81;25451;-57
2023/10/03 01:48:24;;;;;;;15.68;9.70;;;;;;;;;;1729624;82;25616;-58
2023/10/03 01:50:50;;;;;;;16.20;10.30;;;;;;;;;;1741371;80;25910;-57
2023/10/03 01:53:20;;;;;;;15.55;9.33;;;;;;;;;;1721515;82;27350;-58
2023/10/03 01:55:48;;;;;;;15.53;9.70;;;;;;;;;;1751704;81;25539;-57
2023/10/03 01:58:14;;;;;;;15.28;9.75;;;;;;;;;;1741507;81;25624;-57
2023/10/03 02:00:42;;;;;;;16.60;9.83;;;;;;;;;;1751259;81;26201;-59
2023/10/03 02:03:12;;;;;;;15.25;9.60;;;;;;;;;;1750440;81;25435;-59
2023/10/03 02:05:43;;;;;;;;;;;;;;;;;;1757800;81;27677;-59
2023/10/03 02:08:17;;;;;;;;;;;;;;;;;;1754140;80;25855;-59
2023/10/03 02:10:46;;;;;;;16.37;9.88;;;;;;;;;;1749887;80;25586;-58
2023/10/03 02:13:15;;;;;;;17.05;9.33;;;;;;;;;;1751188;81;25793;-57
2023/10/03 02:15:44;;;;;;;14.45;9.80;;;;;;;;;;1754630;80;25443;-57
2023/10/03 02:18:13;;;;;;;17.00;10.20;;;;;;;;;;1749189;81;27880;-57
2023/10/03 02:20:51;;;;;;;14.58;8.95;;;;;;;;;;1749088;81;25922;-57
2023/10/03 02:23:22;;;;;;;16.70;9.93;;;;;;;;;;1749410;80;25859;-58
2023/10/03 02:25:56;;;;;;;14.33;9.63;;;;;;;;;;1751114;81;25619;-58
2023/10/03 02:28:26;;;;;;;13.98;9.78;;;;;;;;;;1750934;80;25805;-56
2023/10/03 02:30:54;;;;;;;14.37;9.87;;;;;;;;;;1752831;81;27766;-57
2023/10/03 02:33:22;;;;;;;19.82;9.65;;;;;;;;;;1754990;81;25565;-57
2023/10/03 02:35:50;;;;;;;13.60;9.55;;;;;;;;;;1756303;81;25878;-58
2023/10/03 02:38:25;;;;;;;16.40;10.08;;;;;;;;;;1759529;80;25730;-59
2023/10/03 02:41:00;;;;;;;16.52;9.58;;;;;;;;;;1755374;80;25843;-58
2023/10/03 02:43:30;;;;;;;17.80;10.08;;;;;;;;;;1758277;81;27696;-56
2023/10/03 02:45:58;;;;;;;16.40;10.03;;;;;;;;;;1752809;80;35431;-58
2023/10/03 02:48:24;;;;;;;16.63;9.80;;;;;;;;;;1751471;81;25791;-58
2023/10/03 02:50:52;;;;;;;16.02;9.73;;;;;;;;;;1757725;80;25698;-58
2023/10/03 02:53:26;;;;;;;17.20;10.60;;;;;;;;;;1746189;80;25467;-58
2023/10/03 02:55:51;;;;;;;19.87;11.33;;;;;;;;;;1754108;80;27318;-58
2023/10/03 02:58:22;;;;;;;16.42;10.88;;;;;;;;;;1755513;81;29520;-58
2023/10/03 03:00:53;;;;;;;20.05;10.90;;;;;;;;;;1752110;81;25800;-58
2023/10/03 03:03:23;;;;;;;19.17;10.75;;;;;;;;;;1749283;81;25664;-58
2023/10/03 03:05:51;;;;;;;16.85;10.80;;;;;;;;;;1740103;81;25875;-57
2023/10/03 03:10:55;;;;;;;17.20;11.43;;;;;;;;;;1742021;81;25435;-59
2023/10/03 03:13:26;;;;;;;17.12;11.70;;;;;;;;;;1751870;81;25662;-60
2023/10/03 03:16:01;;;;;;;16.82;11.63;;;;;;;;;;1708201;82;26893;-59
2023/10/03 03:18:39;;;;;;;22.58;11.85;;;;;;;;;;1750614;81;25709;-59
2023/10/03 03:21:09;;;;;;;16.00;10.95;;;;;;;;;;1747782;79;28062;-58
2023/10/03 03:23:36;;;;;;;18.77;12.03;;;;;;;;;;1752165;81;25907;-58
2023/10/03 03:28:44;;;;;;;19.32;12.28;;;;;;;;;;1752659;80;27762;-58
2023/10/03 03:31:22;;;;;;;18.50;11.90;;;;;;;;;;1749082;81;25880;-58
2023/10/03 03:33:52;;;;;;;21.80;13.28;;;;;;;;;;1755756;81;28050;-58
2023/10/03 03:36:22;;;;;;;20.50;13.62;;;;;;;;;;1754931;81;25589;-57
2023/10/03 03:38:51;;;;;;;21.77;13.60;;;;;;;;;;1755463;81;25433;-58
2023/10/03 03:41:18;;;;;;;19.87;13.30;;;;;;;;;;1749627;81;25939;-58
2023/10/03 03:43:45;;;;;;;20.82;12.40;;;;;;;;;;1752465;81;25452;-58
2023/10/03 03:46:13;;;;;;;22.37;13.62;;;;;;;;;;1752423;81;27487;-58
2023/10/03 03:48:39;;;;;;;19.60;12.70;;;;;;;;;;1752396;81;25622;-58
2023/10/03 03:51:09;;;;;;;19.17;12.68;;;;;;;;;;1752053;81;29718;-58
2023/10/03 03:53:38;;;;;;;18.90;13.43;;;;;;;;;;1752129;81;25739;-58
2023/10/03 03:56:08;;;;;;;19.32;12.85;;;;;;;;;;1749934;81;25409;-58
2023/10/03 03:58:45;;;;;;;19.27;12.93;;;;;;;;;;1751473;81;27336;-58
2023/10/03 04:01:12;;;;;;;22.77;13.25;;;;;;;;;;1751280;80;25839;-58
2023/10/03 04:03:35;;;;;;;20.10;13.05;;;;;;;;;;1751861;81;25801;-58
2023/10/03 04:06:02;;;;;;;22.77;13.45;;;;;;;;;;1750806;81;25635;-57
2023/10/03 04:08:29;;;;;;;27.00;13.65;;;;;;;;;;1752822;81;25508;-59
2023/10/03 04:10:56;;;;;;;19.60;12.78;;;;;;;;;;1754466;81;27918;-58
2023/10/03 04:13:22;;;;;;;21.87;12.78;;;;;;;;;;1750749;81;33401;-59
2023/10/03 04:15:50;;;;;;;21.95;13.88;;;;;;;;;;1754585;80;25555;-58
2023/10/03 04:18:16;;;;;;;21.82;13.50;;;;;;;;;;1713128;81;25816;-58
2023/10/03 04:20:46;;;;;;;21.25;12.28;;;;;;;;;;1741566;80;25767;-58
2023/10/03 04:23:11;;;;;;;21.15;13.10;;;;;;;;;;1722449;82;27381;-58
2023/10/03 04:25:39;;;;;;;19.12;12.95;;;;;;;;;;1753583;81;25420;-56
2023/10/03 04:28:11;;;;;;;24.80;12.65;;;;;;;;;;1751553;81;25737;-58
2023/10/03 04:30:36;;;;;;;21.60;12.73;;;;;;;;;;1749034;81;25672;-59
2023/10/03 04:33:07;;;;;;;16.93;12.93;;;;;;;;;;1748282;81;25440;-59
2023/10/03 04:35:35;;;;;;;19.92;13.00;;;;;;;;;;1748886;81;27363;-57
2023/10/03 04:38:04;;;;;;;17.92;12.43;;;;;;;;;;1749111;81;25574;-59
2023/10/03 04:40:31;;;;;;;21.42;12.28;;;;;;;;;;1743472;81;25461;-58
2023/10/03 04:42:59;;;;;;;18.55;12.63;;;;;;;;;;1747651;81;25940;-59
2023/10/03 04:45:27;;;;;;;19.73;12.70;;;;;;;;;;1744630;80;25433;-59
2023/10/03 04:47:53;;;;;;;16.30;11.88;;;;;;;;;;1722997;82;28198;-59
2023/10/03 04:50:25;;;;;;;19.02;11.68;;;;;;;;;;1747897;81;25797;-58
2023/10/03 04:52:51;;;;;;;18.60;12.70;;;;;;;;;;1724213;82;25486;-58
2023/10/03 04:55:19;;;;;;;21.27;12.37;;;;;;;;;;1747107;81;26419;-59
2023/10/03 04:57:49;;;;;;;18.55;12.70;;;;;;;;;;1753770;81;25468;-58
2023/10/03 05:00:20;;;;;;;23.00;12.82;;;;;;;;;;1743478;81;27384;-59
2023/10/03 05:02:49;;;;;;;22.15;13.32;;;;;;;;;;1742580;81;25587;-57
2023/10/03 05:05:18;;;;;;;17.95;11.95;;;;;;;;;;1747956;81;26037;-61
2023/10/03 05:07:45;;;;;;;17.85;12.68;;;;;;;;;;1751986;81;25968;-61
2023/10/03 05:10:12;;;;;;;23.30;13.60;;;;;;;;;;1709777;81;25615;-61
2023/10/03 05:12:38;;;;;;;18.17;13.27;;;;;;;;;;1741540;81;27225;-62
2023/10/03 05:15:07;;;;;;;21.82;14.20;;;;;;;;;;1741302;81;33264;-57
2023/10/03 05:17:34;;;;;;;18.60;12.60;;;;;;;;;;1740008;81;25695;-57
2023/10/03 05:20:02;;;;;;;20.20;12.58;;;;;;;;;;1740275;81;25822;-59
2023/10/03 05:22:32;;;;;;;19.70;12.28;;;;;;;;;;1741338;81;25695;-57
2023/10/03 05:25:00;;;;;;;17.48;11.88;;;;;;;;;;1751201;81;27695;-58
2023/10/03 05:27:32;;;;;;;18.92;12.23;;;;;;;;;;1751690;81;25831;-57
2023/10/03 05:30:02;;;;;;;20.08;12.63;;;;;;;;;;1743184;81;25968;-58
2023/10/03 05:32:28;;;;;;;19.90;12.03;;;;;;;;;;1745381;81;25789;-58
2023/10/03 05:34:58;;;;;;;21.68;12.23;;;;;;;;;;1745469;81;25783;-58
2023/10/03 05:37:25;;;;;;;20.62;11.65;;;;;;;;;;1749888;81;28030;-57
2023/10/03 05:39:53;;;;;;;14.63;11.00;;;;;;;;;;1750237;81;25947;-58
2023/10/03 05:42:20;;;;;;;18.05;11.57;;;;;;;;;;1749951;81;25724;-58
2023/10/03 05:44:46;;;;;;;27.40;11.40;;;;;;;;;;1749620;81;25913;-57
2023/10/03 05:47:13;;;;;;;18.75;11.15;;;;;;;;;;1741667;81;25417;-58
2023/10/03 05:49:40;;;;;;;52.67;40.38;;;;;;;;;;1750069;81;27332;-59
2023/10/03 05:52:06;;;;;;;21.05;12.23;;;;;;;;;;1747869;81;25755;-60
2023/10/03 05:54:32;;;;;;;20.80;13.32;;;;;;;;;;1739712;82;25600;-60
2023/10/03 05:56:59;;;;;;;28.75;20.23;;;;;;;;;;1749893;81;25647;-62
2023/10/03 05:59:26;;;;;;;26.20;17.12;;;;;;;;;;1752277;81;25387;-62
2023/10/03 06:01:53;;;;;;;18.30;15.00;;;;;;;;;;1754460;81;27761;-61
2023/10/03 06:04:19;;;;;;;14.90;10.20;;;;;;;;;;1756053;81;25597;-60
2023/10/03 06:06:45;;;;;;;16.65;9.68;;;;;;;;;;1759067;80;26789;-59
2023/10/03 06:09:11;;;;;;;18.60;11.05;;;;;;;;;;1750522;81;25942;-60
2023/10/03 06:11:39;;;;;;;15.65;10.53;;;;;;;;;;1762297;81;25769;-59
2023/10/03 06:14:06;;;;;;;18.62;10.32;;;;;;;;;;1757986;81;27329;-61
2023/10/03 06:16:33;;;;;;;22.27;9.98;;;;;;;;;;1755711;80;25780;-60
2023/10/03 06:18:59;;;;;;;13.80;9.18;;;;;;;;;;1754483;81;25740;-61
2023/10/03 06:21:25;;;;;;;16.32;10.00;;;;;;;;;;1755920;81;26216;-60
2023/10/03 06:23:51;;;;;;;14.40;9.98;;;;;;;;;;1751149;81;25631;-62
2023/10/03 06:26:19;;;;;;;16.75;10.03;;;;;;;;;;1751031;80;28347;-60
2023/10/03 06:28:48;;;;;;;16.60;9.90;;;;;;;;;;1745738;80;25506;-61
2023/10/03 06:31:15;;;;;;;14.33;9.28;;;;;;;;;;1748601;81;25398;-61
2023/10/03 06:33:45;;;;;;;17.10;9.35;;;;;;;;;;1754590;81;26363;-62
2023/10/03 06:36:12;;;;;;;16.12;10.23;;;;;;;;;;1755217;81;25751;-62
2023/10/03 06:38:38;;;;;;;16.87;9.10;;;;;;;;;;1747001;81;27320;-61
2023/10/03 06:41:05;;;;;;;14.90;9.20;;;;;;;;;;1747781;81;25888;-60
2023/10/03 06:43:32;;;;;;;14.83;9.13;;;;;;;;;;1727906;79;25746;-60
2023/10/03 06:46:00;;;;;;;15.70;7.58;;;;;;;;;;1742090;80;25551;-62
2023/10/03 06:48:26;;;;;;;11.63;7.85;;;;;;;;;;1740318;79;25388;-59
2023/10/03 06:50:53;;;;;;;12.73;7.95;;;;;;;;;;1734350;81;27858;-62
2023/10/03 06:53:23;;;;;;;13.28;8.00;;;;;;;;;;1729341;81;25714;-61
2023/10/03 06:55:51;;;;;;;12.35;7.95;;;;;;;;;;1730060;81;25495;-60
2023/10/03 06:58:17;;;;;;;11.97;7.42;;;;;;;;;;1744323;81;25904;-61
2023/10/03 07:00:43;;;;;;;11.68;7.50;;;;;;;;;;1744975;81;25787;-62
2023/10/03 07:03:09;;;;;;;15.08;7.47;;;;;;;;;;1744508;81;28448;-63
2023/10/03 07:05:35;;;;;;;10.58;7.30;;;;;;;;;;1744451;81;25546;-58
2023/10/03 07:08:05;;;;;;;21.52;11.78;;;;;;;;;;1747406;81;25816;-61
2023/10/03 07:10:32;;;;;;;12.05;6.30;;;;;;;;;;1744483;81;25738;-62
2023/10/03 07:13:01;;;;;;;13.28;7.47;;;;;;;;;;1745475;81;25469;-63
2023/10/03 07:15:28;;;;;;;13.15;7.85;;;;;;;;;;1746931;80;27344;-60
2023/10/03 07:17:55;;;;;;;11.15;7.28;;;;;;;;;;1743285;81;25657;-58
2023/10/03 07:20:23;;;;;;;14.53;7.17;;;;;;;;;;1743575;81;25465;-59
2023/10/03 07:22:49;;;;;;;9.00;6.72;;;;;;;;;;1749589;80;25759;-60
2023/10/03 07:25:16;;;;;;;12.68;6.65;;;;;;;;;;1752762;81;25541;-61
2023/10/03 07:27:43;;;;;;;11.15;6.12;;;;;;;;;;1751783;80;27256;-57
2023/10/03 07:30:14;;;;;;;12.05;6.47;;;;;;;;;;1754158;80;25598;-59
2023/10/03 07:32:40;;;;;;;10.72;6.78;;;;;;;;;;1750547;80;25729;-57
2023/10/03 07:35:13;;;;;;;11.68;6.75;;;;;;;;;;1760904;80;26884;-57
2023/10/03 07:37:39;;;;;;;14.15;6.83;;;;;;;;;;1751676;80;25588;-58
2023/10/03 07:40:09;;;;;;;11.08;6.45;;;;;;;;;;1751457;80;27299;-59
2023/10/03 07:42:35;;;;;;;10.30;6.15;;;;;;;;;;1743430;81;25400;-61
2023/10/03 07:45:05;;;;;;;10.50;6.50;;;;;;;;;;1748023;81;25522;-61
2023/10/03 07:47:31;;;;;;;10.32;6.15;;;;;;;;;;1746786;81;25638;-61
2023/10/03 07:50:01;;;;;;;12.33;6.40;;;;;;;;;;1744738;81;25239;-60
2023/10/03 07:52:28;;;;;;;9.75;6.33;;;;;;;;;;1745251;81;27289;-57
2023/10/03 07:54:56;;;;;;;14.93;9.73;;;;;;;;;;1746623;81;25453;-59
2023/10/03 07:57:30;;;;;;;9.95;6.20;;;;;;;;;;1761143;81;25646;-62
2023/10/03 07:59:56;;;;;;;9.60;5.90;;;;;;;;;;1754578;80;26354;-60
2023/10/03 08:02:32;;;;;;;12.35;6.85;;;;;;;;;;1750211;80;25424;-62
2023/10/03 08:05:00;;;;;;;11.85;6.30;;;;;;;;;;1745473;80;27328;-60
2023/10/03 08:07:24;;;;;;;11.73;6.55;;;;;;;;;;1749392;81;25441;-59
2023/10/03 08:09:52;;;;;;;8.70;6.50;;;;;;;;;;1749481;80;25554;-59
2023/10/03 08:12:29;;;;;;;11.40;6.62;;;;;;;;;;1758565;81;25693;-59
2023/10/03 08:14:53;;;;;;;8.50;6.15;;;;;;;;;;1741261;81;25970;-63
2023/10/03 08:17:25;;;;;;;11.43;6.53;;;;;;;;;;1747682;81;27236;-64
2023/10/03 08:19:49;;;;;;;12.18;6.33;;;;;;;;;;1751819;80;25876;-63
2023/10/03 08:22:17;;;;;;;8.10;6.10;;;;;;;;;;1741817;81;26007;-63
2023/10/03 08:24:45;;;;;;;9.10;5.90;;;;;;;;;;1747419;81;25587;-63
2023/10/03 08:27:18;;;;;;;10.48;5.78;;;;;;;;;;1745766;81;25778;-62
2023/10/03 08:29:50;;;;;;;9.98;6.22;;;;;;;;;;1750627;81;28031;-61
2023/10/03 08:32:18;;;;;;;11.90;6.28;;;;;;;;;;1749465;81;25781;-61
2023/10/03 08:34:44;;;;;;;10.65;6.47;;;;;;;;;;1745221;81;25499;-60
2023/10/03 08:37:21;;;;;;;10.35;5.87;;;;;;;;;;1742755;81;25664;-59
2023/10/03 08:39:49;;;;;;;13.88;6.03;;;;;;;;;;1750533;81;25443;-61
2023/10/03 08:42:18;;;;;;;9.13;5.92;;;;;;;;;;1755758;80;27695;-60
2023/10/03 08:44:51;;;;;;;10.30;5.95;;;;;;;;;;1739335;81;26033;-59
2023/10/03 08:47:29;;;;;;;10.03;5.72;;;;;;;;;;1737791;81;25349;-59
2023/10/03 08:50:10;;;;;;;8.73;5.08;;;;;;;;;;1756564;81;26137;-60
2023/10/03 08:52:46;;;;;;;10.82;6.00;;;;;;;;;;1753622;81;25845;-63
2023/10/03 08:55:09;;;;;;;11.83;5.97;;;;;;;;;;1749061;81;28146;-60
2023/10/03 08:57:40;;;;;;;7.67;5.28;;;;;;;;;;1746078;80;25748;-60
2023/10/03 09:00:11;;;;;;;6.87;5.47;;;;;;;;;;1750069;80;25733;-60
2023/10/03 09:02:49;;;;;;;10.38;5.95;;;;;;;;;;1747489;81;25688;-59
2023/10/03 09:05:19;;;;;;;9.85;6.22;;;;;;;;;;1757068;80;25650;-60
2023/10/03 09:07:48;;;;;;;10.43;6.12;;;;;;;;;;1753086;81;27676;-62
2023/10/03 09:10:24;;;;;;;;;;;;;;;;;;1752449;81;25654;-61
2023/10/03 09:12:44;;;;;;;7.00;5.20;;;;;;;;;;1753330;80;25617;-59
2023/10/03 09:15:10;;;;;;;10.93;5.83;;;;;;;;;;1750973;80;25964;-60
2023/10/03 09:17:38;;;;;;;10.50;6.05;;;;;;;;;;1751340;81;25405;-60
2023/10/03 09:20:05;;;;;;;9.00;5.40;;;;;;;;;;1749605;81;28311;-60
2023/10/03 09:22:31;;;;;;;8.73;5.50;;;;;;;;;;1735264;81;25712;-60
2023/10/03 09:24:57;;;;;;;27.57;25.90;;;;;;;;;;1746018;81;27352;-60
2023/10/03 09:27:30;;;;;;;12.93;6.03;;;;;;;;;;1751784;81;26002;-62
2023/10/03 09:29:58;;;;;;;10.60;5.42;;;;;;;;;;1754295;80;25548;-62
2023/10/03 09:32:24;;;;;;;9.88;5.95;;;;;;;;;;1743271;81;27222;-59
2023/10/03 09:35:09;;;;;;;9.48;5.67;;;;;;;;;;1728675;82;26066;-60
2023/10/03 09:37:28;;;;;;;12.00;5.92;;;;;;;;;;1748911;81;25428;-60
2023/10/03 09:40:16;;;;;;;12.65;6.72;;;;;;;;;;1747324;81;25560;-64
2023/10/03 09:42:32;;;;;;;33.55;30.30;;;;;;;;;;1745645;81;25774;-64
2023/10/03 09:45:00;;;;;;;11.33;8.53;;;;;;;;;;1748237;81;27692;-63
2023/10/03 09:47:31;;;;;;;22.70;18.95;;;;;;;;;;1752294;81;25962;-64
2023/10/03 09:50:09;;;;;;;11.57;6.67;;;;;;;;;;1721504;82;25433;-63
2023/10/03 09:52:37;;;;;;;12.25;6.12;;;;;;;;;;1752359;81;27759;-63
2023/10/03 09:55:21;;;;;;;8.98;5.33;;;;;;;;;;1742220;81;25428;-64
2023/10/03 09:57:52;;;;;;;12.75;6.83;;;;;;;;;;1734198;80;25980;-63
2023/10/03 10:00:41;;;;;;;13.80;7.03;;;;;;;;;;1751542;81;25632;-64
2023/10/03 10:03:12;;;;;;;11.50;6.53;;;;;;;;;;1741162;81;25860;-64
2023/10/03 10:05:46;;;;;;;15.88;6.58;;;;;;;;;;1719551;81;26313;-65
2023/10/03 10:08:17;;;;;;;10.95;6.95;;;;;;;;;;1744572;80;25599;-65
2023/10/03 10:11:10;;;;;;;9.25;6.60;;;;;;;;;;1740155;81;27257;-65
2023/10/03 10:13:37;;;;;;;11.43;6.22;;;;;;;;;;1747379;81;25541;-65
2023/10/03 10:16:23;;;;;;;9.30;6.03;;;;;;;;;;1752999;81;25848;-65
2023/10/03 10:18:54;;;;;;;10.75;5.75;;;;;;;;;;1741233;81;25582;-65
2023/10/03 10:21:38;;;;;;;9.03;6.03;;;;;;;;;;1737916;81;25635;-65
2023/10/03 10:24:15;;;;;;;12.75;6.60;;;;;;;;;;1756181;80;27702;-66
2023/10/03 10:26:48;;;;;;;11.57;6.95;;;;;;;;;;1750412;81;25464;-64
2023/10/03 10:29:19;;;;;;;11.35;6.47;;;;;;;;;;1752636;81;25870;-65
2023/10/03 10:31:59;;;;;;;11.50;6.45;;;;;;;;;;1748802;79;25612;-66
2023/10/03 10:34:32;;;;;;;11.30;6.72;;;;;;;;;;1747288;81;25559;-63
2023/10/03 10:37:15;;;;;;;9.03;6.62;;;;;;;;;;1736360;82;27348;-64
2023/10/03 10:42:36;;;;;;;8.85;6.65;;;;;;;;;;1707071;83;25566;-65
2023/10/03 10:45:16;;;;;;;12.13;6.80;;;;;;;;;;1696148;83;26005;-66
2023/10/03 10:47:46;;;;;;;12.90;7.67;;;;;;;;;;1691352;83;25687;-67
2023/10/03 10:50:14;;;;;;;36.58;32.85;;;;;;;;;;1689197;83;28473;-67
2023/10/03 10:52:56;;;;;;;11.85;7.00;;;;;;;;;;1685269;83;25566;-58
2023/10/03 10:55:26;;;;;;;9.13;6.10;;;;;;;;;;1701354;83;25623;-60
2023/10/03 10:58:15;;;;;;;12.93;6.42;;;;;;;;;;1675138;83;26074;-58
2023/10/03 11:00:43;;;;;;;;;;;;;;;;;;1687333;83;25881;-60
2023/10/03 11:03:09;;;;;;;;;;;;;;;;;;1693110;83;27699;-59
2023/10/03 11:05:47;;;;;;;12.50;6.85;;;;;;;;;;1687298;83;25741;-58
2023/10/03 11:08:15;;;;;;;11.40;6.90;;;;;;;;;;1688155;83;25578;-58
2023/10/03 11:10:52;;;;;;;11.33;5.95;;;;;;;;;;1690406;83;25619;-58
2023/10/03 11:13:21;;;;;;;10.80;6.08;;;;;;;;;;1695938;83;25591;-58
2023/10/03 11:15:53;;;;;;;11.97;6.35;;;;;;;;;;1699143;83;28054;-60
2023/10/03 11:18:31;;;;;;;13.35;6.67;;;;;;;;;;1688817;83;25379;-60
2023/10/03 11:20:58;;;;;;;11.28;7.33;;;;;;;;;;1752787;81;25814;-60
2023/10/03 11:23:24;;;;;;;11.03;6.45;;;;;;;;;;1754978;81;26011;-60
2023/10/03 11:26:00;;;;;;;9.88;6.00;;;;;;;;;;1756014;80;25555;-62
2023/10/03 11:28:28;;;;;;;13.20;6.75;;;;;;;;;;1750736;80;27486;-61
2023/10/03 11:31:02;;;;;;;10.98;7.30;;;;;;;;;;1752016;81;25469;-60
2023/10/03 11:33:30;;;;;;;10.10;6.42;;;;;;;;;;1753672;81;25463;-60
2023/10/03 11:35:56;;;;;;;12.63;7.00;;;;;;;;;;1755282;81;26293;-59
2023/10/03 11:38:23;;;;;;;14.38;7.08;;;;;;;;;;1743851;81;25400;-60
2023/10/03 11:40:51;;;;;;;10.05;7.03;;;;;;;;;;1749977;81;27299;-61
2023/10/03 11:43:21;;;;;;;12.68;6.87;;;;;;;;;;1730256;81;25645;-60
2023/10/03 11:45:57;;;;;;;11.25;6.30;;;;;;;;;;1736163;81;25372;-60
2023/10/03 11:48:24;;;;;;;9.90;6.12;;;;;;;;;;1737491;82;26397;-60
2023/10/03 11:50:50;;;;;;;8.63;5.50;;;;;;;;;;1746990;81;25592;-58
2023/10/03 11:53:18;;;;;;;60.52;56.60;;;;;;;;;;1750449;81;27363;-61
2023/10/03 11:55:45;;;;;;;;;;;;;;;;;;1744989;80;25773;-68
2023/10/03 11:58:11;;;;;;;7.75;6.03;;;;;;;;;;1739731;80;25516;-64
2023/10/03 12:00:42;;;;;;;12.35;5.97;;;;;;;;;;1750266;80;25726;-68
2023/10/03 12:03:09;;;;;;;14.13;6.33;;;;;;;;;;1748393;80;25800;-67
2023/10/03 12:05:36;;;;;;;11.00;6.25;;;;;;;;;;1745802;80;28558;-67
2023/10/03 12:08:05;;;;;;;12.95;6.53;;;;;;;;;;1740492;80;25423;-65
2023/10/03 12:10:31;;;;;;;10.98;6.75;;;;;;;;;;1750389;79;25866;-64
2023/10/03 12:12:58;;;;;;;10.15;6.08;;;;;;;;;;1743478;81;25655;-65
2023/10/03 12:15:24;;;;;;;9.63;5.85;;;;;;;;;;1736455;82;25498;-65
2023/10/03 12:17:52;;;;;;;10.88;6.00;;;;;;;;;;1743738;80;27682;-63
2023/10/03 12:20:22;;;;;;;13.28;8.38;;;;;;;;;;1734944;81;25990;-64
2023/10/03 12:22:53;;;;;;;9.45;5.83;;;;;;;;;;1746646;78;25484;-64
2023/10/03 12:25:22;;;;;;;13.03;5.83;;;;;;;;;;1742290;80;25815;-63
2023/10/03 12:27:50;;;;;;;11.80;5.83;;;;;;;;;;1742797;79;25429;-62
2023/10/03 12:30:20;;;;;;;11.08;6.00;;;;;;;;;;1740891;81;27903;-64
2023/10/03 12:32:48;;;;;;;10.43;5.95;;;;;;;;;;1743341;81;25892;-65
2023/10/03 12:35:17;;;;;;;9.78;6.10;;;;;;;;;;1744234;80;25500;-65
2023/10/03 12:37:48;;;;;;;11.50;6.55;;;;;;;;;;1748207;80;26737;-64
2023/10/03 12:40:27;;;;;;;10.53;5.62;;;;;;;;;;1737584;80;25467;-66
2023/10/03 12:42:55;;;;;;;9.25;5.55;;;;;;;;;;1754347;81;27437;-66
2023/10/03 12:45:26;;;;;;;13.10;6.12;;;;;;;;;;1751205;81;25558;-65
2023/10/03 12:47:53;;;;;;;13.72;8.35;;;;;;;;;;1740920;81;25524;-63
2023/10/03 12:50:27;;;;;;;9.20;6.37;;;;;;;;;;1697701;82;25905;-64
2023/10/03 12:53:05;;;;;;;10.50;5.28;;;;;;;;;;1753835;80;25719;-63
2023/10/03 12:55:32;;;;;;;11.05;6.20;;;;;;;;;;1752368;80;27687;-64
2023/10/03 12:58:00;;;;;;;10.30;6.25;;;;;;;;;;1752348;80;26345;-64
2023/10/03 13:00:27;;;;;;;11.45;5.30;;;;;;;;;;1761532;80;25920;-62
2023/10/03 13:02:59;;;;;;;9.80;5.30;;;;;;;;;;1762965;80;26344;-64
2023/10/03 13:05:25;;;;;;;14.23;5.90;;;;;;;;;;1750449;80;25925;-63
2023/10/03 13:07:53;;;;;;;11.20;5.30;;;;;;;;;;1748190;79;27797;-63
2023/10/03 13:10:25;;;;;;;10.85;5.20;;;;;;;;;;1751816;81;25640;-62
2023/10/03 13:12:56;;;;;;;10.35;5.42;;;;;;;;;;1743372;81;25777;-62
2023/10/03 13:15:23;;;;;;;8.28;5.30;;;;;;;;;;1725693;80;26342;-64
2023/10/03 13:17:52;;;;;;;11.10;5.87;;;;;;;;;;1747795;80;25572;-61
2023/10/03 13:20:23;;;;;;;14.28;6.20;;;;;;;;;;1745293;81;26755;-63
2023/10/03 13:22:48;;;;;;;9.93;5.47;;;;;;;;;;1757065;81;25855;-63
2023/10/03 13:25:22;;;;;;;10.50;5.35;;;;;;;;;;1744455;81;25519;-63
2023/10/03 13:27:47;;;;;;;8.28;5.35;;;;;;;;;;1748196;79;26170;-63
2023/10/03 13:30:18;;;;;;;13.17;5.87;;;;;;;;;;1755980;80;25385;-63
2023/10/03 13:32:51;;;;;;;9.48;5.58;;;;;;;;;;1742582;80;28262;-61
2023/10/03 13:35:20;;;;;;;10.58;5.20;;;;;;;;;;1743770;81;25720;-62
2023/10/03 13:37:49;;;;;;;7.50;5.00;;;;;;;;;;1739708;80;25541;-63
2023/10/03 13:40:17;;;;;;;7.42;5.30;;;;;;;;;;1753805;80;25797;-63
2023/10/03 13:42:47;;;;;;;10.63;4.87;;;;;;;;;;1746102;79;25554;-63
2023/10/03 13:45:17;;;;;;;7.35;5.00;;;;;;;;;;1747499;79;27263;-64
2023/10/03 13:47:45;;;;;;;14.58;5.55;;;;;;;;;;1732221;81;25927;-63
2023/10/03 13:50:15;;;;;;;9.28;4.60;;;;;;;;;;1739010;81;25519;-62
2023/10/03 13:52:41;;;;;;;13.70;5.35;;;;;;;;;;1750483;81;25805;-63
2023/10/03 13:55:11;;;;;;;10.82;5.58;;;;;;;;;;1748954;81;25911;-62
2023/10/03 13:57:40;;;;;;;11.45;5.40;;;;;;;;;;1745045;79;27343;-62
2023/10/03 14:00:15;;;;;;;8.88;5.28;;;;;;;;;;1740411;79;25761;-62
2023/10/03 14:02:46;;;;;;;11.53;5.00;;;;;;;;;;1740165;79;25700;-62
2023/10/03 14:05:12;;;;;;;10.03;4.85;;;;;;;;;;1743371;80;25790;-62
2023/10/03 14:07:40;;;;;;;8.28;5.40;;;;;;;;;;1744130;80;25738;-62
2023/10/03 14:10:13;;;;;;;9.68;4.80;;;;;;;;;;1753024;81;27345;-62
2023/10/03 14:12:37;;;;;;;30.60;19.12;;;;;;;;;;1740690;81;25799;-63
2023/10/03 14:15:13;;;;;;;12.68;5.17;;;;;;;;;;1737304;81;25664;-63
2023/10/03 14:17:39;;;;;;;9.68;4.90;;;;;;;;;;1760859;81;26431;-64
2023/10/03 14:20:09;;;;;;;43.13;38.42;;;;;;;;;;1749736;80;25839;-64
2023/10/03 14:22:36;;;;;;;9.48;6.37;;;;;;;;;;1756431;80;27334;-64
2023/10/03 14:25:14;;;;;;;9.03;7.35;;;;;;;;;;1746794;81;25808;-66
2023/10/03 14:27:44;;;;;;;9.45;4.90;;;;;;;;;;1744612;79;25393;-65
2023/10/03 14:30:12;;;;;;;10.03;5.12;;;;;;;;;;1747749;80;25908;-66
2023/10/03 14:32:42;;;;;;;10.05;5.10;;;;;;;;;;1742231;80;25685;-66
2023/10/03 14:35:12;;;;;;;10.65;4.17;;;;;;;;;;1742208;81;26553;-67
2023/10/03 14:37:39;;;;;;;8.48;5.33;;;;;;;;;;1744021;81;25849;-66
2023/10/03 14:40:15;;;;;;;11.73;5.15;;;;;;;;;;1753753;81;25529;-66
2023/10/03 14:42:39;;;;;;;8.95;4.50;;;;;;;;;;1753676;79;26185;-66
2023/10/03 14:47:54;;;;;;;10.75;4.87;;;;;;;;;;1654083;83;27364;-67
2023/10/03 14:50:22;;;;;;;8.30;4.67;;;;;;;;;;1699660;83;25538;-65
2023/10/03 14:52:48;;;;;;;8.48;4.62;;;;;;;;;;1707772;83;25638;-66
2023/10/03 14:55:16;;;;;;;10.45;5.08;;;;;;;;;;1690387;83;25878;-66
2023/10/03 14:57:43;;;;;;;8.05;4.83;;;;;;;;;;1685294;83;25555;-66